sensor_id;sensor_type;location;lat;lon;timestamp;temperature;humidity
48579;DHT22;34357;51.948;6.132;2023-09-30T00:01:01;12.10;91.10
48579;DHT22;34357;51.948;6.132;2023-09-30T00:03:27;12.10;91.10
48579;DHT22;34357;51.948;6.132;2023-09-30T00:05:53;12.00;91.10
48579;DHT22;34357;51.948;6.132;2023-09-30T00:08:19;12.00;91.10
48579;DHT22;34357;51.948;6.132;2023-09-30T00:10:45;12.00;91.10
48579;DHT22;34357;51.948;6.132;2023-09-30T00:13:12;12.00;91.10
48579;DHT22;34357;51.948;6.132;2023-09-30T00:15:38;12.00;91.20
48579;DHT22;34357;51.948;6.132;2023-09-30T00:18:04;12.00;91.10
48579;DHT22;34357;51.948;6.132;2023-09-30T00:20:30;12.00;91.30
48579;DHT22;34357;51.948;6.132;2023-09-30T00:22:57;12.10;91.30
48579;DHT22;34357;51.948;6.132;2023-09-30T00:25:23;12.10;91.40
48579;DHT22;34357;51.948;6.132;2023-09-30T00:27:49;12.10;91.30
48579;DHT22;34357;51.948;6.132;2023-09-30T00:30:15;12.10;91.30
48579;DHT22;34357;51.948;6.132;2023-09-30T00:32:42;12.10;91.30
48579;DHT22;34357;51.948;6.132;2023-09-30T00:35:08;12.10;91.40
48579;DHT22;34357;51.948;6.132;2023-09-30T00:37:39;12.10;91.30
48579;DHT22;34357;51.948;6.132;2023-09-30T00:40:05;12.10;91.30
48579;DHT22;34357;51.948;6.132;2023-09-30T00:42:31;12.10;91.40
48579;DHT22;34357;51.948;6.132;2023-09-30T00:44:57;12.10;91.40
48579;DHT22;34357;51.948;6.132;2023-09-30T00:47:23;12.10;91.40
48579;DHT22;34357;51.948;6.132;2023-09-30T00:49:50;12.00;91.40
48579;DHT22;34357;51.948;6.132;2023-09-30T00:52:17;12.00;91.30
48579;DHT22;34357;51.948;6.132;2023-09-30T00:54:43;11.90;91.30
48579;DHT22;34357;51.948;6.132;2023-09-30T00:57:10;11.90;91.40
48579;DHT22;34357;51.948;6.132;2023-09-30T00:59:36;11.90;91.30
48579;DHT22;34357;51.948;6.132;2023-09-30T01:02:03;11.90;91.40
48579;DHT22;34357;51.948;6.132;2023-09-30T01:04:31;11.90;91.40
48579;DHT22;34357;51.948;6.132;2023-09-30T01:06:56;11.90;91.40
48579;DHT22;34357;51.948;6.132;2023-09-30T01:09:27;11.90;91.40
48579;DHT22;34357;51.948;6.132;2023-09-30T01:11:53;11.90;91.40
48579;DHT22;34357;51.948;6.132;2023-09-30T01:14:25;11.90;91.40
48579;DHT22;34357;51.948;6.132;2023-09-30T01:16:51;11.90;91.40
48579;DHT22;34357;51.948;6.132;2023-09-30T01:19:17;11.90;91.40
48579;DHT22;34357;51.948;6.132;2023-09-30T01:21:43;11.90;91.30
48579;DHT22;34357;51.948;6.132;2023-09-30T01:24:14;11.80;91.50
48579;DHT22;34357;51.948;6.132;2023-09-30T01:26:40;11.70;91.60
48579;DHT22;34357;51.948;6.132;2023-09-30T01:29:08;11.70;91.80
48579;DHT22;34357;51.948;6.132;2023-09-30T01:31:37;11.70;91.80
48579;DHT22;34357;51.948;6.132;2023-09-30T01:34:02;11.70;91.90
48579;DHT22;34357;51.948;6.132;2023-09-30T01:36:29;11.60;91.90
48579;DHT22;34357;51.948;6.132;2023-09-30T01:38:55;11.60;92.00
48579;DHT22;34357;51.948;6.132;2023-09-30T01:41:21;11.50;92.00
48579;DHT22;34357;51.948;6.132;2023-09-30T01:43:46;11.50;92.00
48579;DHT22;34357;51.948;6.132;2023-09-30T01:46:12;11.50;92.00
48579;DHT22;34357;51.948;6.132;2023-09-30T01:48:39;11.50;92.10
48579;DHT22;34357;51.948;6.132;2023-09-30T01:51:05;11.40;92.10
48579;DHT22;34357;51.948;6.132;2023-09-30T01:53:32;11.50;92.10
48579;DHT22;34357;51.948;6.132;2023-09-30T01:55:59;11.60;92.10
48579;DHT22;34357;51.948;6.132;2023-09-30T01:58:25;11.50;92.00
48579;DHT22;34357;51.948;6.132;2023-09-30T02:00:54;11.50;92.00
48579;DHT22;34357;51.948;6.132;2023-09-30T02:03:19;11.50;92.10
48579;DHT22;34357;51.948;6.132;2023-09-30T02:05:46;11.50;92.10
48579;DHT22;34357;51.948;6.132;2023-09-30T02:08:11;11.50;92.20
48579;DHT22;34357;51.948;6.132;2023-09-30T02:10:39;11.50;92.30
48579;DHT22;34357;51.948;6.132;2023-09-30T02:13:06;11.50;92.40
48579;DHT22;34357;51.948;6.132;2023-09-30T02:15:33;11.50;92.40
48579;DHT22;34357;51.948;6.132;2023-09-30T02:17:59;11.50;92.40
48579;DHT22;34357;51.948;6.132;2023-09-30T02:20:26;11.50;92.40
48579;DHT22;34357;51.948;6.132;2023-09-30T02:22:55;11.40;92.50
48579;DHT22;34357;51.948;6.132;2023-09-30T02:25:21;11.40;92.40
48579;DHT22;34357;51.948;6.132;2023-09-30T02:27:47;11.40;92.30
48579;DHT22;34357;51.948;6.132;2023-09-30T02:30:13;11.30;92.30
48579;DHT22;34357;51.948;6.132;2023-09-30T02:32:42;11.30;92.30
48579;DHT22;34357;51.948;6.132;2023-09-30T02:35:09;11.20;92.30
48579;DHT22;34357;51.948;6.132;2023-09-30T02:37:37;11.20;92.30
48579;DHT22;34357;51.948;6.132;2023-09-30T02:40:04;11.20;92.40
48579;DHT22;34357;51.948;6.132;2023-09-30T02:42:37;11.20;92.40
48579;DHT22;34357;51.948;6.132;2023-09-30T02:45:04;11.20;92.50
48579;DHT22;34357;51.948;6.132;2023-09-30T02:47:31;11.20;92.60
48579;DHT22;34357;51.948;6.132;2023-09-30T02:49:58;11.20;92.60
48579;DHT22;34357;51.948;6.132;2023-09-30T02:52:25;11.20;92.70
48579;DHT22;34357;51.948;6.132;2023-09-30T02:54:51;11.20;92.80
48579;DHT22;34357;51.948;6.132;2023-09-30T02:57:17;11.20;92.80
48579;DHT22;34357;51.948;6.132;2023-09-30T02:59:43;11.20;92.80
48579;DHT22;34357;51.948;6.132;2023-09-30T03:02:10;11.30;92.90
48579;DHT22;34357;51.948;6.132;2023-09-30T03:04:37;11.30;92.80
48579;DHT22;34357;51.948;6.132;2023-09-30T03:07:03;11.30;92.90
48579;DHT22;34357;51.948;6.132;2023-09-30T03:09:28;11.40;92.90
48579;DHT22;34357;51.948;6.132;2023-09-30T03:11:54;11.40;92.90
48579;DHT22;34357;51.948;6.132;2023-09-30T03:14:25;11.50;92.80
48579;DHT22;34357;51.948;6.132;2023-09-30T03:16:51;11.50;92.70
48579;DHT22;34357;51.948;6.132;2023-09-30T03:19:18;11.50;92.70
48579;DHT22;34357;51.948;6.132;2023-09-30T03:21:44;11.50;92.80
48579;DHT22;34357;51.948;6.132;2023-09-30T03:24:10;11.50;92.80
48579;DHT22;34357;51.948;6.132;2023-09-30T03:26:36;11.50;92.80
48579;DHT22;34357;51.948;6.132;2023-09-30T03:29:06;11.60;92.80
48579;DHT22;34357;51.948;6.132;2023-09-30T03:31:31;11.60;92.80
48579;DHT22;34357;51.948;6.132;2023-09-30T03:33:57;11.50;92.80
48579;DHT22;34357;51.948;6.132;2023-09-30T03:36:23;11.50;92.80
48579;DHT22;34357;51.948;6.132;2023-09-30T03:38:55;11.50;92.90
48579;DHT22;34357;51.948;6.132;2023-09-30T03:41:24;11.50;92.90
48579;DHT22;34357;51.948;6.132;2023-09-30T03:43:50;11.50;92.80
48579;DHT22;34357;51.948;6.132;2023-09-30T03:46:16;11.50;92.90
48579;DHT22;34357;51.948;6.132;2023-09-30T03:48:44;11.50;92.90
48579;DHT22;34357;51.948;6.132;2023-09-30T03:51:14;11.50;93.00
48579;DHT22;34357;51.948;6.132;2023-09-30T03:53:43;11.60;93.00
48579;DHT22;34357;51.948;6.132;2023-09-30T03:56:09;11.50;92.90
48579;DHT22;34357;51.948;6.132;2023-09-30T03:58:42;11.50;92.90
48579;DHT22;34357;51.948;6.132;2023-09-30T04:01:11;11.50;93.00
48579;DHT22;34357;51.948;6.132;2023-09-30T04:03:37;11.50;93.00
48579;DHT22;34357;51.948;6.132;2023-09-30T04:06:08;11.60;93.00
48579;DHT22;34357;51.948;6.132;2023-09-30T04:08:34;11.60;93.00
48579;DHT22;34357;51.948;6.132;2023-09-30T04:11:04;11.60;93.00
48579;DHT22;34357;51.948;6.132;2023-09-30T04:13:30;11.60;93.00
48579;DHT22;34357;51.948;6.132;2023-09-30T04:15:56;11.60;93.00
48579;DHT22;34357;51.948;6.132;2023-09-30T04:18:24;11.60;93.00
48579;DHT22;34357;51.948;6.132;2023-09-30T04:20:52;11.70;93.10
48579;DHT22;34357;51.948;6.132;2023-09-30T04:23:18;11.70;93.10
48579;DHT22;34357;51.948;6.132;2023-09-30T04:25:46;11.80;93.10
48579;DHT22;34357;51.948;6.132;2023-09-30T04:28:12;11.90;93.10
48579;DHT22;34357;51.948;6.132;2023-09-30T04:30:40;11.90;93.10
48579;DHT22;34357;51.948;6.132;2023-09-30T04:33:06;11.80;93.00
48579;DHT22;34357;51.948;6.132;2023-09-30T04:35:33;11.80;93.10
48579;DHT22;34357;51.948;6.132;2023-09-30T04:38:01;11.80;93.10
48579;DHT22;34357;51.948;6.132;2023-09-30T04:40:27;11.90;93.10
48579;DHT22;34357;51.948;6.132;2023-09-30T04:42:53;11.80;93.10
48579;DHT22;34357;51.948;6.132;2023-09-30T04:45:27;11.80;93.00
48579;DHT22;34357;51.948;6.132;2023-09-30T04:47:53;11.80;93.00
48579;DHT22;34357;51.948;6.132;2023-09-30T04:50:19;11.80;93.00
48579;DHT22;34357;51.948;6.132;2023-09-30T04:52:48;11.80;93.00
48579;DHT22;34357;51.948;6.132;2023-09-30T04:55:14;11.70;93.10
48579;DHT22;34357;51.948;6.132;2023-09-30T04:57:45;11.70;93.10
48579;DHT22;34357;51.948;6.132;2023-09-30T05:00:13;11.80;93.10
48579;DHT22;34357;51.948;6.132;2023-09-30T05:02:40;11.80;93.10
48579;DHT22;34357;51.948;6.132;2023-09-30T05:05:06;11.80;93.20
48579;DHT22;34357;51.948;6.132;2023-09-30T05:07:32;11.80;93.20
48579;DHT22;34357;51.948;6.132;2023-09-30T05:09:58;11.90;93.20
48579;DHT22;34357;51.948;6.132;2023-09-30T05:12:25;11.80;93.30
48579;DHT22;34357;51.948;6.132;2023-09-30T05:14:51;11.90;93.30
48579;DHT22;34357;51.948;6.132;2023-09-30T05:17:17;11.90;93.30
48579;DHT22;34357;51.948;6.132;2023-09-30T05:19:43;11.90;93.30
48579;DHT22;34357;51.948;6.132;2023-09-30T05:22:10;11.90;93.30
48579;DHT22;34357;51.948;6.132;2023-09-30T05:24:35;11.90;93.20
48579;DHT22;34357;51.948;6.132;2023-09-30T05:27:01;11.90;93.30
48579;DHT22;34357;51.948;6.132;2023-09-30T05:29:28;11.90;93.30
48579;DHT22;34357;51.948;6.132;2023-09-30T05:31:54;11.90;93.30
48579;DHT22;34357;51.948;6.132;2023-09-30T05:34:19;12.00;93.20
48579;DHT22;34357;51.948;6.132;2023-09-30T05:36:45;12.00;93.20
48579;DHT22;34357;51.948;6.132;2023-09-30T05:39:11;12.00;93.10
48579;DHT22;34357;51.948;6.132;2023-09-30T05:41:38;12.00;93.20
48579;DHT22;34357;51.948;6.132;2023-09-30T05:44:04;12.00;93.20
48579;DHT22;34357;51.948;6.132;2023-09-30T05:46:30;12.00;93.20
48579;DHT22;34357;51.948;6.132;2023-09-30T05:48:56;12.00;93.30
48579;DHT22;34357;51.948;6.132;2023-09-30T05:51:22;12.00;93.30
48579;DHT22;34357;51.948;6.132;2023-09-30T05:53:48;12.00;93.30
48579;DHT22;34357;51.948;6.132;2023-09-30T05:56:14;12.00;93.30
48579;DHT22;34357;51.948;6.132;2023-09-30T05:58:42;12.00;93.30
48579;DHT22;34357;51.948;6.132;2023-09-30T06:01:10;12.10;93.30
48579;DHT22;34357;51.948;6.132;2023-09-30T06:03:37;12.10;93.20
48579;DHT22;34357;51.948;6.132;2023-09-30T06:06:14;12.20;93.30
48579;DHT22;34357;51.948;6.132;2023-09-30T06:08:42;12.20;93.10
48579;DHT22;34357;51.948;6.132;2023-09-30T06:11:21;12.20;93.20
48579;DHT22;34357;51.948;6.132;2023-09-30T06:13:53;12.30;93.20
48579;DHT22;34357;51.948;6.132;2023-09-30T06:16:19;12.30;92.90
48579;DHT22;34357;51.948;6.132;2023-09-30T06:18:45;12.40;93.00
48579;DHT22;34357;51.948;6.132;2023-09-30T06:21:12;12.40;92.70
48579;DHT22;34357;51.948;6.132;2023-09-30T06:23:40;12.40;92.60
48579;DHT22;34357;51.948;6.132;2023-09-30T06:26:06;12.40;92.60
48579;DHT22;34357;51.948;6.132;2023-09-30T06:28:32;12.40;92.70
48579;DHT22;34357;51.948;6.132;2023-09-30T06:30:59;12.50;92.70
48579;DHT22;34357;51.948;6.132;2023-09-30T06:33:25;12.40;92.60
48579;DHT22;34357;51.948;6.132;2023-09-30T06:35:54;12.50;92.60
48579;DHT22;34357;51.948;6.132;2023-09-30T06:38:21;12.80;92.50
48579;DHT22;34357;51.948;6.132;2023-09-30T06:40:47;12.90;92.50
48579;DHT22;34357;51.948;6.132;2023-09-30T06:43:16;13.10;92.30
48579;DHT22;34357;51.948;6.132;2023-09-30T06:45:42;13.20;91.90
48579;DHT22;34357;51.948;6.132;2023-09-30T06:48:09;13.30;91.40
48579;DHT22;34357;51.948;6.132;2023-09-30T06:50:48;13.30;91.00
48579;DHT22;34357;51.948;6.132;2023-09-30T06:53:18;13.40;90.70
48579;DHT22;34357;51.948;6.132;2023-09-30T06:55:49;13.40;90.30
48579;DHT22;34357;51.948;6.132;2023-09-30T06:58:17;13.50;90.00
48579;DHT22;34357;51.948;6.132;2023-09-30T07:00:49;13.50;89.70
48579;DHT22;34357;51.948;6.132;2023-09-30T07:03:16;13.50;90.00
48579;DHT22;34357;51.948;6.132;2023-09-30T07:05:42;13.50;90.10
48579;DHT22;34357;51.948;6.132;2023-09-30T07:08:09;13.40;90.00
48579;DHT22;34357;51.948;6.132;2023-09-30T07:10:35;13.40;90.20
48579;DHT22;34357;51.948;6.132;2023-09-30T07:13:04;13.50;90.30
48579;DHT22;34357;51.948;6.132;2023-09-30T07:15:32;13.60;90.20
48579;DHT22;34357;51.948;6.132;2023-09-30T07:17:58;13.60;90.00
48579;DHT22;34357;51.948;6.132;2023-09-30T07:20:24;13.60;89.90
48579;DHT22;34357;51.948;6.132;2023-09-30T07:22:50;13.60;90.00
48579;DHT22;34357;51.948;6.132;2023-09-30T07:25:16;13.70;90.00
48579;DHT22;34357;51.948;6.132;2023-09-30T07:27:46;13.90;89.80
48579;DHT22;34357;51.948;6.132;2023-09-30T07:30:12;14.10;89.60
48579;DHT22;34357;51.948;6.132;2023-09-30T07:32:42;14.30;89.20
48579;DHT22;34357;51.948;6.132;2023-09-30T07:35:08;14.40;88.70
48579;DHT22;34357;51.948;6.132;2023-09-30T07:37:34;14.40;88.50
48579;DHT22;34357;51.948;6.132;2023-09-30T07:40:00;14.30;88.50
48579;DHT22;34357;51.948;6.132;2023-09-30T07:42:25;14.40;88.90
48579;DHT22;34357;51.948;6.132;2023-09-30T07:44:51;14.60;88.70
48579;DHT22;34357;51.948;6.132;2023-09-30T07:47:17;14.80;88.50
48579;DHT22;34357;51.948;6.132;2023-09-30T07:49:43;14.90;87.70
48579;DHT22;34357;51.948;6.132;2023-09-30T07:52:08;15.10;87.60
48579;DHT22;34357;51.948;6.132;2023-09-30T07:54:34;15.30;87.00
48579;DHT22;34357;51.948;6.132;2023-09-30T07:57:01;15.50;87.40
48579;DHT22;34357;51.948;6.132;2023-09-30T07:59:27;15.70;86.40
48579;DHT22;34357;51.948;6.132;2023-09-30T08:01:53;15.90;86.00
48579;DHT22;34357;51.948;6.132;2023-09-30T08:04:19;15.90;85.40
48579;DHT22;34357;51.948;6.132;2023-09-30T08:06:45;16.10;85.30
48579;DHT22;34357;51.948;6.132;2023-09-30T08:09:14;16.30;84.80
48579;DHT22;34357;51.948;6.132;2023-09-30T08:11:39;16.40;84.10
48579;DHT22;34357;51.948;6.132;2023-09-30T08:14:06;16.30;84.00
48579;DHT22;34357;51.948;6.132;2023-09-30T08:16:41;16.20;84.30
48579;DHT22;34357;51.948;6.132;2023-09-30T08:19:08;16.10;84.40
48579;DHT22;34357;51.948;6.132;2023-09-30T08:21:34;16.20;84.80
48579;DHT22;34357;51.948;6.132;2023-09-30T08:24:02;16.40;84.40
48579;DHT22;34357;51.948;6.132;2023-09-30T08:26:27;16.50;83.60
48579;DHT22;34357;51.948;6.132;2023-09-30T08:28:53;16.90;84.60
48579;DHT22;34357;51.948;6.132;2023-09-30T08:31:19;16.90;82.20
48579;DHT22;34357;51.948;6.132;2023-09-30T08:33:47;16.90;82.30
48579;DHT22;34357;51.948;6.132;2023-09-30T08:36:13;17.10;82.50
48579;DHT22;34357;51.948;6.132;2023-09-30T08:38:40;17.40;81.70
48579;DHT22;34357;51.948;6.132;2023-09-30T08:41:06;17.40;81.10
48579;DHT22;34357;51.948;6.132;2023-09-30T08:43:39;17.70;81.60
48579;DHT22;34357;51.948;6.132;2023-09-30T08:46:06;17.70;81.10
48579;DHT22;34357;51.948;6.132;2023-09-30T08:48:33;17.90;79.60
48579;DHT22;34357;51.948;6.132;2023-09-30T08:51:00;17.90;79.10
48579;DHT22;34357;51.948;6.132;2023-09-30T08:53:26;18.00;78.90
48579;DHT22;34357;51.948;6.132;2023-09-30T08:55:56;17.90;79.60
48579;DHT22;34357;51.948;6.132;2023-09-30T08:58:24;18.00;79.70
48579;DHT22;34357;51.948;6.132;2023-09-30T09:00:51;18.00;79.10
48579;DHT22;34357;51.948;6.132;2023-09-30T09:03:18;18.20;79.50
48579;DHT22;34357;51.948;6.132;2023-09-30T09:05:44;18.30;78.70
48579;DHT22;34357;51.948;6.132;2023-09-30T09:08:10;18.50;78.60
48579;DHT22;34357;51.948;6.132;2023-09-30T09:10:53;18.60;78.40
48579;DHT22;34357;51.948;6.132;2023-09-30T09:13:19;18.70;78.30
48579;DHT22;34357;51.948;6.132;2023-09-30T09:15:45;19.00;76.80
48579;DHT22;34357;51.948;6.132;2023-09-30T09:18:11;19.10;76.30
48579;DHT22;34357;51.948;6.132;2023-09-30T09:20:39;19.10;76.80
48579;DHT22;34357;51.948;6.132;2023-09-30T09:23:06;19.30;76.00
48579;DHT22;34357;51.948;6.132;2023-09-30T09:25:38;19.20;75.50
48579;DHT22;34357;51.948;6.132;2023-09-30T09:28:04;19.00;76.40
48579;DHT22;34357;51.948;6.132;2023-09-30T09:30:30;19.10;76.30
48579;DHT22;34357;51.948;6.132;2023-09-30T09:33:00;19.00;76.20
48579;DHT22;34357;51.948;6.132;2023-09-30T09:35:27;19.20;76.50
48579;DHT22;34357;51.948;6.132;2023-09-30T09:38:06;19.20;75.80
48579;DHT22;34357;51.948;6.132;2023-09-30T09:40:34;19.30;76.00
48579;DHT22;34357;51.948;6.132;2023-09-30T09:43:00;19.20;76.70
48579;DHT22;34357;51.948;6.132;2023-09-30T09:45:34;19.40;75.80
48579;DHT22;34357;51.948;6.132;2023-09-30T09:48:00;19.50;75.40
48579;DHT22;34357;51.948;6.132;2023-09-30T09:50:26;19.70;74.60
48579;DHT22;34357;51.948;6.132;2023-09-30T09:52:53;20.00;74.00
48579;DHT22;34357;51.948;6.132;2023-09-30T09:55:23;20.10;73.70
48579;DHT22;34357;51.948;6.132;2023-09-30T09:57:49;20.10;73.60
48579;DHT22;34357;51.948;6.132;2023-09-30T10:00:20;19.90;73.00
48579;DHT22;34357;51.948;6.132;2023-09-30T10:02:47;19.70;73.90
48579;DHT22;34357;51.948;6.132;2023-09-30T10:05:14;19.50;73.70
48579;DHT22;34357;51.948;6.132;2023-09-30T10:08:14;19.30;74.60
48579;DHT22;34357;51.948;6.132;2023-09-30T10:10:42;19.20;74.40
48579;DHT22;34357;51.948;6.132;2023-09-30T10:13:09;19.20;74.70
48579;DHT22;34357;51.948;6.132;2023-09-30T10:15:36;19.40;74.90
48579;DHT22;34357;51.948;6.132;2023-09-30T10:18:10;19.40;75.10
48579;DHT22;34357;51.948;6.132;2023-09-30T10:20:41;19.50;74.70
48579;DHT22;34357;51.948;6.132;2023-09-30T10:23:28;19.60;73.80
48579;DHT22;34357;51.948;6.132;2023-09-30T10:26:24;19.80;73.60
48579;DHT22;34357;51.948;6.132;2023-09-30T10:28:50;20.10;71.40
48579;DHT22;34357;51.948;6.132;2023-09-30T10:31:20;19.90;70.90
48579;DHT22;34357;51.948;6.132;2023-09-30T10:36:34;20.00;69.70
48579;DHT22;34357;51.948;6.132;2023-09-30T10:39:01;19.90;71.30
48579;DHT22;34357;51.948;6.132;2023-09-30T10:49:43;19.90;69.30
48579;DHT22;34357;51.948;6.132;2023-09-30T10:52:09;20.00;69.70
48579;DHT22;34357;51.948;6.132;2023-09-30T10:54:35;20.10;68.30
48579;DHT22;34357;51.948;6.132;2023-09-30T10:57:02;19.80;69.10
48579;DHT22;34357;51.948;6.132;2023-09-30T10:59:29;19.60;69.20
48579;DHT22;34357;51.948;6.132;2023-09-30T11:01:56;19.60;68.70
48579;DHT22;34357;51.948;6.132;2023-09-30T11:04:22;19.70;68.10
48579;DHT22;34357;51.948;6.132;2023-09-30T11:06:48;19.90;67.70
48579;DHT22;34357;51.948;6.132;2023-09-30T11:09:18;19.70;68.80
48579;DHT22;34357;51.948;6.132;2023-09-30T11:11:47;19.80;69.10
48579;DHT22;34357;51.948;6.132;2023-09-30T11:14:25;19.90;67.90
48579;DHT22;34357;51.948;6.132;2023-09-30T11:16:53;20.10;66.40
48579;DHT22;34357;51.948;6.132;2023-09-30T11:19:20;20.30;65.60
48579;DHT22;34357;51.948;6.132;2023-09-30T11:21:50;20.50;66.30
48579;DHT22;34357;51.948;6.132;2023-09-30T11:24:16;20.50;64.50
48579;DHT22;34357;51.948;6.132;2023-09-30T11:26:43;20.40;64.20
48579;DHT22;34357;51.948;6.132;2023-09-30T11:29:11;20.20;63.80
48579;DHT22;34357;51.948;6.132;2023-09-30T11:31:38;20.00;65.80
48579;DHT22;34357;51.948;6.132;2023-09-30T11:34:04;19.80;63.00
48579;DHT22;34357;51.948;6.132;2023-09-30T11:36:30;19.50;63.50
48579;DHT22;34357;51.948;6.132;2023-09-30T11:38:59;19.50;66.60
48579;DHT22;34357;51.948;6.132;2023-09-30T11:41:39;19.50;67.40
48579;DHT22;34357;51.948;6.132;2023-09-30T11:44:11;19.40;68.70
48579;DHT22;34357;51.948;6.132;2023-09-30T11:49:37;19.20;67.40
48579;DHT22;34357;51.948;6.132;2023-09-30T11:52:10;19.20;68.00
48579;DHT22;34357;51.948;6.132;2023-09-30T11:54:40;19.30;67.10
48579;DHT22;34357;51.948;6.132;2023-09-30T11:57:15;19.60;65.80
48579;DHT22;34357;51.948;6.132;2023-09-30T11:59:43;20.00;65.70
48579;DHT22;34357;51.948;6.132;2023-09-30T12:02:11;20.00;62.70
48579;DHT22;34357;51.948;6.132;2023-09-30T12:04:38;20.00;62.10
48579;DHT22;34357;51.948;6.132;2023-09-30T12:07:04;20.00;62.50
48579;DHT22;34357;51.948;6.132;2023-09-30T12:09:32;20.10;61.90
48579;DHT22;34357;51.948;6.132;2023-09-30T12:12:00;20.40;61.30
48579;DHT22;34357;51.948;6.132;2023-09-30T12:14:26;20.30;60.40
48579;DHT22;34357;51.948;6.132;2023-09-30T12:16:55;20.40;61.80
48579;DHT22;34357;51.948;6.132;2023-09-30T12:19:20;20.50;62.10
48579;DHT22;34357;51.948;6.132;2023-09-30T12:21:47;20.60;61.40
48579;DHT22;34357;51.948;6.132;2023-09-30T12:24:17;20.50;62.30
48579;DHT22;34357;51.948;6.132;2023-09-30T12:26:45;20.60;59.90
48579;DHT22;34357;51.948;6.132;2023-09-30T12:29:21;20.70;61.50
48579;DHT22;34357;51.948;6.132;2023-09-30T12:31:51;20.70;61.20
48579;DHT22;34357;51.948;6.132;2023-09-30T12:34:17;20.80;62.60
48579;DHT22;34357;51.948;6.132;2023-09-30T12:36:44;20.60;61.20
48579;DHT22;34357;51.948;6.132;2023-09-30T12:39:11;20.50;61.90
48579;DHT22;34357;51.948;6.132;2023-09-30T12:41:41;20.40;60.90
48579;DHT22;34357;51.948;6.132;2023-09-30T12:44:08;20.30;60.00
48579;DHT22;34357;51.948;6.132;2023-09-30T12:46:35;20.40;60.30
48579;DHT22;34357;51.948;6.132;2023-09-30T12:49:06;20.50;60.40
48579;DHT22;34357;51.948;6.132;2023-09-30T12:51:35;20.50;61.70
48579;DHT22;34357;51.948;6.132;2023-09-30T12:54:02;20.50;61.30
48579;DHT22;34357;51.948;6.132;2023-09-30T12:56:28;20.30;62.10
48579;DHT22;34357;51.948;6.132;2023-09-30T12:58:57;20.40;62.90
48579;DHT22;34357;51.948;6.132;2023-09-30T13:01:24;20.30;60.30
48579;DHT22;34357;51.948;6.132;2023-09-30T13:03:50;20.20;61.30
48579;DHT22;34357;51.948;6.132;2023-09-30T13:06:16;20.00;61.70
48579;DHT22;34357;51.948;6.132;2023-09-30T13:08:42;20.20;62.60
48579;DHT22;34357;51.948;6.132;2023-09-30T13:11:09;20.30;62.90
48579;DHT22;34357;51.948;6.132;2023-09-30T13:13:37;20.40;63.00
48579;DHT22;34357;51.948;6.132;2023-09-30T13:16:03;20.20;61.70
48579;DHT22;34357;51.948;6.132;2023-09-30T13:18:35;20.00;62.00
48579;DHT22;34357;51.948;6.132;2023-09-30T13:21:02;19.90;61.70
48579;DHT22;34357;51.948;6.132;2023-09-30T13:23:28;20.00;62.60
48579;DHT22;34357;51.948;6.132;2023-09-30T13:25:54;20.00;62.40
48579;DHT22;34357;51.948;6.132;2023-09-30T13:28:20;20.20;64.60
48579;DHT22;34357;51.948;6.132;2023-09-30T13:30:45;20.20;62.80
48579;DHT22;34357;51.948;6.132;2023-09-30T13:33:11;20.20;61.80
48579;DHT22;34357;51.948;6.132;2023-09-30T13:35:37;20.20;60.30
48579;DHT22;34357;51.948;6.132;2023-09-30T13:38:03;20.30;60.70
48579;DHT22;34357;51.948;6.132;2023-09-30T13:40:30;20.30;61.10
48579;DHT22;34357;51.948;6.132;2023-09-30T13:42:56;20.50;62.00
48579;DHT22;34357;51.948;6.132;2023-09-30T13:45:23;20.50;60.90
48579;DHT22;34357;51.948;6.132;2023-09-30T13:47:48;20.50;62.00
48579;DHT22;34357;51.948;6.132;2023-09-30T13:50:14;20.60;61.90
48579;DHT22;34357;51.948;6.132;2023-09-30T13:52:41;20.50;61.80
48579;DHT22;34357;51.948;6.132;2023-09-30T13:55:07;20.60;62.00
48579;DHT22;34357;51.948;6.132;2023-09-30T13:57:34;20.40;61.20
48579;DHT22;34357;51.948;6.132;2023-09-30T14:00:02;20.30;60.30
48579;DHT22;34357;51.948;6.132;2023-09-30T14:02:30;20.30;61.10
48579;DHT22;34357;51.948;6.132;2023-09-30T14:04:56;20.30;62.30
48579;DHT22;34357;51.948;6.132;2023-09-30T14:07:21;20.30;61.20
48579;DHT22;34357;51.948;6.132;2023-09-30T14:09:47;20.20;61.70
48579;DHT22;34357;51.948;6.132;2023-09-30T14:12:13;20.20;61.70
48579;DHT22;34357;51.948;6.132;2023-09-30T14:14:39;20.10;62.20
48579;DHT22;34357;51.948;6.132;2023-09-30T14:17:05;20.20;61.00
48579;DHT22;34357;51.948;6.132;2023-09-30T14:19:33;20.00;62.40
48579;DHT22;34357;51.948;6.132;2023-09-30T14:21:59;20.10;61.90
48579;DHT22;34357;51.948;6.132;2023-09-30T14:24:25;20.20;61.80
48579;DHT22;34357;51.948;6.132;2023-09-30T14:26:51;20.10;61.00
48579;DHT22;34357;51.948;6.132;2023-09-30T14:29:17;20.00;60.60
48579;DHT22;34357;51.948;6.132;2023-09-30T14:31:43;19.90;59.60
48579;DHT22;34357;51.948;6.132;2023-09-30T14:34:09;20.00;60.10
48579;DHT22;34357;51.948;6.132;2023-09-30T14:36:35;20.00;60.40
48579;DHT22;34357;51.948;6.132;2023-09-30T14:39:00;20.10;59.90
48579;DHT22;34357;51.948;6.132;2023-09-30T14:41:26;20.00;60.10
48579;DHT22;34357;51.948;6.132;2023-09-30T14:43:52;19.80;61.10
48579;DHT22;34357;51.948;6.132;2023-09-30T14:46:17;19.90;61.60
48579;DHT22;34357;51.948;6.132;2023-09-30T14:48:43;19.90;62.80
48579;DHT22;34357;51.948;6.132;2023-09-30T14:51:09;20.00;62.00
48579;DHT22;34357;51.948;6.132;2023-09-30T14:53:35;19.90;61.40
48579;DHT22;34357;51.948;6.132;2023-09-30T14:56:01;20.00;61.50
48579;DHT22;34357;51.948;6.132;2023-09-30T14:58:27;19.90;61.40
48579;DHT22;34357;51.948;6.132;2023-09-30T15:00:53;19.90;61.30
48579;DHT22;34357;51.948;6.132;2023-09-30T15:03:19;20.00;62.70
48579;DHT22;34357;51.948;6.132;2023-09-30T15:05:47;19.90;62.80
48579;DHT22;34357;51.948;6.132;2023-09-30T15:08:15;19.90;61.40
48579;DHT22;34357;51.948;6.132;2023-09-30T15:10:41;19.70;60.70
48579;DHT22;34357;51.948;6.132;2023-09-30T15:13:07;19.60;61.00
48579;DHT22;34357;51.948;6.132;2023-09-30T15:15:37;19.50;63.10
48579;DHT22;34357;51.948;6.132;2023-09-30T15:18:03;19.50;61.40
48579;DHT22;34357;51.948;6.132;2023-09-30T15:20:28;19.50;61.40
48579;DHT22;34357;51.948;6.132;2023-09-30T15:22:54;19.50;62.20
48579;DHT22;34357;51.948;6.132;2023-09-30T15:25:20;19.50;61.00
48579;DHT22;34357;51.948;6.132;2023-09-30T15:27:46;19.40;62.50
48579;DHT22;34357;51.948;6.132;2023-09-30T15:30:13;19.40;61.80
48579;DHT22;34357;51.948;6.132;2023-09-30T15:32:40;19.40;62.00
48579;DHT22;34357;51.948;6.132;2023-09-30T15:35:07;19.40;61.50
48579;DHT22;34357;51.948;6.132;2023-09-30T15:37:34;19.40;63.40
48579;DHT22;34357;51.948;6.132;2023-09-30T15:39:59;19.30;63.10
48579;DHT22;34357;51.948;6.132;2023-09-30T15:42:26;19.30;63.70
48579;DHT22;34357;51.948;6.132;2023-09-30T15:44:51;19.30;62.60